sensor_id;sensor_type;location;lat;lon;timestamp;P1;durP1;ratioP1;P2;durP2;ratioP2
21798;SDS011;24973;47.178;15.316;2022-09-01T00:01:58;3.50;;;3.20;;
21798;SDS011;24973;47.178;15.316;2022-09-01T00:04:54;5.27;;;3.00;;
21798;SDS011;24973;47.178;15.316;2022-09-01T00:07:43;4.43;;;4.03;;
21798;SDS011;24973;47.178;15.316;2022-09-01T00:10:32;3.70;;;3.37;;
21798;SDS011;24973;47.178;15.316;2022-09-01T00:13:22;6.80;;;3.37;;
21798;SDS011;24973;47.178;15.316;2022-09-01T00:16:12;4.60;;;3.23;;
21798;SDS011;24973;47.178;15.316;2022-09-01T00:19:03;3.47;;;3.17;;
21798;SDS011;24973;47.178;15.316;2022-09-01T00:21:52;4.00;;;3.43;;
21798;SDS011;24973;47.178;15.316;2022-09-01T00:24:41;4.07;;;3.73;;
21798;SDS011;24973;47.178;15.316;2022-09-01T00:27:30;4.90;;;3.17;;
21798;SDS011;24973;47.178;15.316;2022-09-01T00:30:20;3.90;;;3.50;;
21798;SDS011;24973;47.178;15.316;2022-09-01T00:33:09;3.50;;;3.20;;
21798;SDS011;24973;47.178;15.316;2022-09-01T00:35:58;3.07;;;2.77;;
21798;SDS011;24973;47.178;15.316;2022-09-01T00:38:47;2.97;;;2.63;;
21798;SDS011;24973;47.178;15.316;2022-09-01T00:41:38;3.67;;;3.37;;
21798;SDS011;24973;47.178;15.316;2022-09-01T00:44:30;4.00;;;3.10;;
21798;SDS011;24973;47.178;15.316;2022-09-01T00:47:21;3.83;;;3.43;;
21798;SDS011;24973;47.178;15.316;2022-09-01T00:50:10;5.13;;;3.43;;
21798;SDS011;24973;47.178;15.316;2022-09-01T00:53:02;3.73;;;3.43;;
21798;SDS011;24973;47.178;15.316;2022-09-01T00:55:54;6.43;;;4.03;;
21798;SDS011;24973;47.178;15.316;2022-09-01T00:58:43;3.63;;;3.33;;
21798;SDS011;24973;47.178;15.316;2022-09-01T01:01:32;4.13;;;3.73;;
21798;SDS011;24973;47.178;15.316;2022-09-01T01:04:24;4.90;;;3.73;;
21798;SDS011;24973;47.178;15.316;2022-09-01T01:07:13;4.63;;;4.23;;
21798;SDS011;24973;47.178;15.316;2022-09-01T01:10:03;3.73;;;3.33;;
21798;SDS011;24973;47.178;15.316;2022-09-01T01:12:53;3.93;;;3.63;;
21798;SDS011;24973;47.178;15.316;2022-09-01T01:15:42;4.40;;;3.90;;
21798;SDS011;24973;47.178;15.316;2022-09-01T01:18:31;4.10;;;3.80;;
21798;SDS011;24973;47.178;15.316;2022-09-01T01:21:22;4.37;;;3.23;;
21798;SDS011;24973;47.178;15.316;2022-09-01T01:24:42;4.13;;;3.83;;
21798;SDS011;24973;47.178;15.316;2022-09-01T01:27:31;3.67;;;3.37;;
21798;SDS011;24973;47.178;15.316;2022-09-01T01:30:21;4.07;;;3.63;;
21798;SDS011;24973;47.178;15.316;2022-09-01T01:33:09;4.10;;;3.80;;
21798;SDS011;24973;47.178;15.316;2022-09-01T01:35:58;4.93;;;3.50;;
21798;SDS011;24973;47.178;15.316;2022-09-01T01:38:48;3.83;;;3.50;;
21798;SDS011;24973;47.178;15.316;2022-09-01T01:41:40;6.50;;;3.93;;
21798;SDS011;24973;47.178;15.316;2022-09-01T01:44:34;3.80;;;3.50;;
21798;SDS011;24973;47.178;15.316;2022-09-01T01:47:24;3.60;;;3.30;;
21798;SDS011;24973;47.178;15.316;2022-09-01T01:50:13;4.80;;;4.30;;
21798;SDS011;24973;47.178;15.316;2022-09-01T01:53:02;4.00;;;3.60;;
21798;SDS011;24973;47.178;15.316;2022-09-01T01:55:54;10.30;;;4.10;;
21798;SDS011;24973;47.178;15.316;2022-09-01T01:58:45;3.50;;;3.20;;
21798;SDS011;24973;47.178;15.316;2022-09-01T02:01:34;5.03;;;3.57;;
21798;SDS011;24973;47.178;15.316;2022-09-01T02:04:24;4.43;;;4.03;;
21798;SDS011;24973;47.178;15.316;2022-09-01T02:07:19;5.97;;;4.33;;
21798;SDS011;24973;47.178;15.316;2022-09-01T02:10:08;4.70;;;4.30;;
21798;SDS011;24973;47.178;15.316;2022-09-01T02:12:58;4.20;;;3.90;;
21798;SDS011;24973;47.178;15.316;2022-09-01T02:15:54;5.93;;;4.00;;
21798;SDS011;24973;47.178;15.316;2022-09-01T02:18:44;4.50;;;4.10;;
21798;SDS011;24973;47.178;15.316;2022-09-01T02:21:35;6.13;;;4.83;;
21798;SDS011;24973;47.178;15.316;2022-09-01T02:24:24;4.13;;;3.83;;
21798;SDS011;24973;47.178;15.316;2022-09-01T02:27:16;4.37;;;3.97;;
21798;SDS011;24973;47.178;15.316;2022-09-01T02:30:08;4.63;;;4.23;;
21798;SDS011;24973;47.178;15.316;2022-09-01T02:32:59;4.00;;;3.63;;
21798;SDS011;24973;47.178;15.316;2022-09-01T02:35:49;4.20;;;3.80;;
21798;SDS011;24973;47.178;15.316;2022-09-01T02:38:41;7.07;;;4.00;;
21798;SDS011;24973;47.178;15.316;2022-09-01T02:41:31;4.87;;;4.37;;
21798;SDS011;24973;47.178;15.316;2022-09-01T02:44:20;6.47;;;4.33;;
21798;SDS011;24973;47.178;15.316;2022-09-01T02:47:09;5.87;;;4.77;;
21798;SDS011;24973;47.178;15.316;2022-09-01T02:49:59;4.80;;;4.10;;
21798;SDS011;24973;47.178;15.316;2022-09-01T02:52:49;3.53;;;3.23;;
21798;SDS011;24973;47.178;15.316;2022-09-01T02:55:39;4.20;;;3.80;;
21798;SDS011;24973;47.178;15.316;2022-09-01T02:58:30;4.37;;;3.97;;
21798;SDS011;24973;47.178;15.316;2022-09-01T03:01:29;4.60;;;3.70;;
21798;SDS011;24973;47.178;15.316;2022-09-01T03:04:19;4.73;;;3.97;;
21798;SDS011;24973;47.178;15.316;2022-09-01T03:07:11;4.63;;;4.13;;
21798;SDS011;24973;47.178;15.316;2022-09-01T03:10:04;4.53;;;4.10;;
21798;SDS011;24973;47.178;15.316;2022-09-01T03:12:55;5.00;;;4.47;;
21798;SDS011;24973;47.178;15.316;2022-09-01T03:15:44;6.67;;;4.27;;
21798;SDS011;24973;47.178;15.316;2022-09-01T03:18:33;7.07;;;4.37;;
21798;SDS011;24973;47.178;15.316;2022-09-01T03:21:22;4.47;;;4.07;;
21798;SDS011;24973;47.178;15.316;2022-09-01T03:24:14;4.60;;;4.30;;
21798;SDS011;24973;47.178;15.316;2022-09-01T03:27:06;6.87;;;4.60;;
21798;SDS011;24973;47.178;15.316;2022-09-01T03:29:57;6.00;;;4.57;;
21798;SDS011;24973;47.178;15.316;2022-09-01T03:32:46;4.93;;;4.53;;
21798;SDS011;24973;47.178;15.316;2022-09-01T03:35:35;5.97;;;4.77;;
21798;SDS011;24973;47.178;15.316;2022-09-01T03:38:24;3.93;;;3.63;;
21798;SDS011;24973;47.178;15.316;2022-09-01T03:41:15;7.30;;;4.87;;
21798;SDS011;24973;47.178;15.316;2022-09-01T03:44:07;5.30;;;4.80;;
21798;SDS011;24973;47.178;15.316;2022-09-01T03:46:57;5.90;;;4.63;;
21798;SDS011;24973;47.178;15.316;2022-09-01T03:49:47;4.97;;;4.53;;
21798;SDS011;24973;47.178;15.316;2022-09-01T03:52:36;4.83;;;4.30;;
21798;SDS011;24973;47.178;15.316;2022-09-01T03:55:27;4.73;;;4.40;;
21798;SDS011;24973;47.178;15.316;2022-09-01T03:58:21;5.17;;;4.67;;
21798;SDS011;24973;47.178;15.316;2022-09-01T04:01:11;4.47;;;4.10;;
21798;SDS011;24973;47.178;15.316;2022-09-01T04:04:02;7.30;;;4.57;;
21798;SDS011;24973;47.178;15.316;2022-09-01T04:06:52;5.60;;;5.10;;
21798;SDS011;24973;47.178;15.316;2022-09-01T04:09:40;4.73;;;4.33;;
21798;SDS011;24973;47.178;15.316;2022-09-01T04:12:29;5.30;;;4.70;;
21798;SDS011;24973;47.178;15.316;2022-09-01T04:15:20;5.03;;;4.53;;
21798;SDS011;24973;47.178;15.316;2022-09-01T04:18:09;5.07;;;4.67;;
21798;SDS011;24973;47.178;15.316;2022-09-01T04:21:05;5.47;;;4.97;;
21798;SDS011;24973;47.178;15.316;2022-09-01T04:23:54;6.17;;;4.73;;
21798;SDS011;24973;47.178;15.316;2022-09-01T04:26:51;4.93;;;4.43;;
21798;SDS011;24973;47.178;15.316;2022-09-01T04:29:40;6.23;;;4.53;;
21798;SDS011;24973;47.178;15.316;2022-09-01T04:32:30;5.20;;;4.70;;
21798;SDS011;24973;47.178;15.316;2022-09-01T04:35:20;5.57;;;5.07;;
21798;SDS011;24973;47.178;15.316;2022-09-01T04:38:18;5.20;;;4.70;;
21798;SDS011;24973;47.178;15.316;2022-09-01T04:41:07;8.33;;;5.43;;
21798;SDS011;24973;47.178;15.316;2022-09-01T04:44:02;5.83;;;5.23;;
21798;SDS011;24973;47.178;15.316;2022-09-01T04:46:52;5.23;;;4.83;;
21798;SDS011;24973;47.178;15.316;2022-09-01T04:49:43;6.07;;;5.07;;
21798;SDS011;24973;47.178;15.316;2022-09-01T04:52:34;6.63;;;6.03;;
21798;SDS011;24973;47.178;15.316;2022-09-01T04:55:23;6.83;;;6.23;;
21798;SDS011;24973;47.178;15.316;2022-09-01T04:58:14;6.10;;;5.50;;
21798;SDS011;24973;47.178;15.316;2022-09-01T05:01:11;5.50;;;5.10;;
21798;SDS011;24973;47.178;15.316;2022-09-01T05:04:01;6.57;;;5.43;;
21798;SDS011;24973;47.178;15.316;2022-09-01T05:06:52;5.10;;;4.70;;
21798;SDS011;24973;47.178;15.316;2022-09-01T05:09:46;5.90;;;5.23;;
21798;SDS011;24973;47.178;15.316;2022-09-01T05:12:35;12.17;;;4.90;;
21798;SDS011;24973;47.178;15.316;2022-09-01T05:15:23;6.37;;;4.83;;
21798;SDS011;24973;47.178;15.316;2022-09-01T05:18:13;5.87;;;5.37;;
21798;SDS011;24973;47.178;15.316;2022-09-01T05:21:08;5.37;;;4.83;;
21798;SDS011;24973;47.178;15.316;2022-09-01T05:23:59;5.73;;;5.23;;
21798;SDS011;24973;47.178;15.316;2022-09-01T05:26:49;9.57;;;5.03;;
21798;SDS011;24973;47.178;15.316;2022-09-01T05:29:38;9.40;;;6.27;;
21798;SDS011;24973;47.178;15.316;2022-09-01T05:32:27;6.97;;;5.73;;
21798;SDS011;24973;47.178;15.316;2022-09-01T05:35:17;7.10;;;5.67;;
21798;SDS011;24973;47.178;15.316;2022-09-01T05:38:10;6.97;;;6.03;;
21798;SDS011;24973;47.178;15.316;2022-09-01T05:41:03;10.77;;;6.07;;
21798;SDS011;24973;47.178;15.316;2022-09-01T05:43:54;6.83;;;6.13;;
21798;SDS011;24973;47.178;15.316;2022-09-01T05:46:45;5.83;;;5.30;;
21798;SDS011;24973;47.178;15.316;2022-09-01T05:49:35;6.10;;;5.60;;
21798;SDS011;24973;47.178;15.316;2022-09-01T05:52:25;7.80;;;5.60;;
21798;SDS011;24973;47.178;15.316;2022-09-01T05:55:15;5.37;;;4.50;;
21798;SDS011;24973;47.178;15.316;2022-09-01T05:58:05;5.03;;;4.57;;
21798;SDS011;24973;47.178;15.316;2022-09-01T06:00:59;4.60;;;4.10;;
21798;SDS011;24973;47.178;15.316;2022-09-01T06:03:49;5.43;;;4.10;;
21798;SDS011;24973;47.178;15.316;2022-09-01T06:06:41;7.27;;;4.13;;
21798;SDS011;24973;47.178;15.316;2022-09-01T06:09:50;4.33;;;3.90;;
21798;SDS011;24973;47.178;15.316;2022-09-01T06:12:39;3.20;;;3.00;;
21798;SDS011;24973;47.178;15.316;2022-09-01T06:15:30;4.13;;;3.83;;
21798;SDS011;24973;47.178;15.316;2022-09-01T06:18:19;4.87;;;3.60;;
21798;SDS011;24973;47.178;15.316;2022-09-01T06:21:10;3.93;;;3.60;;
21798;SDS011;24973;47.178;15.316;2022-09-01T06:24:00;4.33;;;3.93;;
21798;SDS011;24973;47.178;15.316;2022-09-01T06:26:52;3.17;;;2.87;;
21798;SDS011;24973;47.178;15.316;2022-09-01T06:29:41;4.73;;;2.77;;
21798;SDS011;24973;47.178;15.316;2022-09-01T06:32:32;3.13;;;2.80;;
21798;SDS011;24973;47.178;15.316;2022-09-01T06:35:24;3.40;;;3.10;;
21798;SDS011;24973;47.178;15.316;2022-09-01T06:38:15;3.07;;;2.73;;
21798;SDS011;24973;47.178;15.316;2022-09-01T06:41:05;2.73;;;2.53;;
21798;SDS011;24973;47.178;15.316;2022-09-01T06:43:55;5.43;;;3.30;;
21798;SDS011;24973;47.178;15.316;2022-09-01T06:46:45;3.47;;;3.17;;
21798;SDS011;24973;47.178;15.316;2022-09-01T06:49:35;3.27;;;2.97;;
21798;SDS011;24973;47.178;15.316;2022-09-01T06:52:26;3.33;;;2.87;;
21798;SDS011;24973;47.178;15.316;2022-09-01T06:55:35;2.77;;;2.57;;
21798;SDS011;24973;47.178;15.316;2022-09-01T06:58:25;3.10;;;2.50;;
21798;SDS011;24973;47.178;15.316;2022-09-01T07:01:15;2.90;;;2.70;;
21798;SDS011;24973;47.178;15.316;2022-09-01T07:04:06;3.20;;;2.37;;
21798;SDS011;24973;47.178;15.316;2022-09-01T07:07:00;3.07;;;2.80;;
21798;SDS011;24973;47.178;15.316;2022-09-01T07:10:16;2.63;;;2.43;;
21798;SDS011;24973;47.178;15.316;2022-09-01T07:13:08;2.70;;;2.50;;
21798;SDS011;24973;47.178;15.316;2022-09-01T07:15:56;2.90;;;2.60;;
21798;SDS011;24973;47.178;15.316;2022-09-01T07:19:06;3.60;;;2.47;;
21798;SDS011;24973;47.178;15.316;2022-09-01T07:22:02;2.43;;;2.13;;
21798;SDS011;24973;47.178;15.316;2022-09-01T07:24:52;2.63;;;2.43;;
21798;SDS011;24973;47.178;15.316;2022-09-01T07:27:55;2.50;;;2.33;;
21798;SDS011;24973;47.178;15.316;2022-09-01T07:30:48;2.97;;;2.73;;
21798;SDS011;24973;47.178;15.316;2022-09-01T07:33:39;2.53;;;2.13;;
21798;SDS011;24973;47.178;15.316;2022-09-01T07:36:30;2.50;;;2.30;;
21798;SDS011;24973;47.178;15.316;2022-09-01T07:39:21;2.30;;;2.10;;
21798;SDS011;24973;47.178;15.316;2022-09-01T07:42:30;2.63;;;1.90;;
21798;SDS011;24973;47.178;15.316;2022-09-01T07:45:42;3.77;;;2.40;;
21798;SDS011;24973;47.178;15.316;2022-09-01T07:48:43;2.73;;;2.53;;
21798;SDS011;24973;47.178;15.316;2022-09-01T07:51:54;5.07;;;3.30;;
21798;SDS011;24973;47.178;15.316;2022-09-01T07:54:45;2.30;;;1.90;;
21798;SDS011;24973;47.178;15.316;2022-09-01T07:57:34;2.80;;;2.60;;
21798;SDS011;24973;47.178;15.316;2022-09-01T08:00:23;2.53;;;2.20;;
21798;SDS011;24973;47.178;15.316;2022-09-01T08:03:14;2.10;;;2.00;;
21798;SDS011;24973;47.178;15.316;2022-09-01T08:06:05;2.37;;;2.17;;
21798;SDS011;24973;47.178;15.316;2022-09-01T08:08:58;2.93;;;2.40;;
21798;SDS011;24973;47.178;15.316;2022-09-01T08:11:48;2.93;;;2.03;;
21798;SDS011;24973;47.178;15.316;2022-09-01T08:14:46;2.43;;;1.77;;
21798;SDS011;24973;47.178;15.316;2022-09-01T08:17:58;3.43;;;1.93;;
21798;SDS011;24973;47.178;15.316;2022-09-01T08:20:47;1.50;;;1.30;;
21798;SDS011;24973;47.178;15.316;2022-09-01T08:23:35;2.10;;;1.80;;
21798;SDS011;24973;47.178;15.316;2022-09-01T08:26:25;3.93;;;1.83;;
21798;SDS011;24973;47.178;15.316;2022-09-01T08:29:15;2.70;;;1.77;;
21798;SDS011;24973;47.178;15.316;2022-09-01T08:32:04;3.00;;;2.00;;
21798;SDS011;24973;47.178;15.316;2022-09-01T08:34:53;2.30;;;1.70;;
21798;SDS011;24973;47.178;15.316;2022-09-01T08:37:42;3.07;;;2.23;;
21798;SDS011;24973;47.178;15.316;2022-09-01T08:40:31;3.00;;;2.00;;
21798;SDS011;24973;47.178;15.316;2022-09-01T08:43:21;1.43;;;1.33;;
21798;SDS011;24973;47.178;15.316;2022-09-01T08:46:31;1.63;;;1.53;;
21798;SDS011;24973;47.178;15.316;2022-09-01T08:49:23;1.57;;;1.47;;
21798;SDS011;24973;47.178;15.316;2022-09-01T08:52:16;3.27;;;1.73;;
21798;SDS011;24973;47.178;15.316;2022-09-01T08:55:13;1.97;;;1.57;;
21798;SDS011;24973;47.178;15.316;2022-09-01T08:58:07;1.53;;;1.43;;
21798;SDS011;24973;47.178;15.316;2022-09-01T09:01:00;3.07;;;1.70;;
21798;SDS011;24973;47.178;15.316;2022-09-01T09:03:59;3.53;;;1.50;;
21798;SDS011;24973;47.178;15.316;2022-09-01T09:07:01;2.80;;;1.40;;
21798;SDS011;24973;47.178;15.316;2022-09-01T09:09:58;5.43;;;2.00;;
21798;SDS011;24973;47.178;15.316;2022-09-01T09:12:59;3.67;;;1.57;;
21798;SDS011;24973;47.178;15.316;2022-09-01T09:15:57;1.93;;;1.40;;
21798;SDS011;24973;47.178;15.316;2022-09-01T09:18:54;2.83;;;1.60;;
21798;SDS011;24973;47.178;15.316;2022-09-01T09:21:52;1.80;;;1.50;;
21798;SDS011;24973;47.178;15.316;2022-09-01T09:24:44;1.60;;;1.40;;
21798;SDS011;24973;47.178;15.316;2022-09-01T09:27:39;3.47;;;1.17;;
21798;SDS011;24973;47.178;15.316;2022-09-01T09:30:29;1.80;;;1.70;;
21798;SDS011;24973;47.178;15.316;2022-09-01T09:33:31;2.63;;;1.30;;
21798;SDS011;24973;47.178;15.316;2022-09-01T09:36:35;1.73;;;1.30;;
21798;SDS011;24973;47.178;15.316;2022-09-01T09:39:24;3.63;;;1.50;;
21798;SDS011;24973;47.178;15.316;2022-09-01T09:42:15;2.17;;;1.57;;
21798;SDS011;24973;47.178;15.316;2022-09-01T09:45:04;2.87;;;1.37;;
21798;SDS011;24973;47.178;15.316;2022-09-01T09:48:09;1.13;;;1.03;;
21798;SDS011;24973;47.178;15.316;2022-09-01T09:51:15;2.37;;;1.30;;
21798;SDS011;24973;47.178;15.316;2022-09-01T09:54:17;1.47;;;1.37;;
21798;SDS011;24973;47.178;15.316;2022-09-01T09:57:12;2.00;;;1.30;;
21798;SDS011;24973;47.178;15.316;2022-09-01T10:00:04;5.73;;;1.50;;
21798;SDS011;24973;47.178;15.316;2022-09-01T10:02:57;1.30;;;1.20;;
21798;SDS011;24973;47.178;15.316;2022-09-01T10:05:48;0.87;;;0.87;;
21798;SDS011;24973;47.178;15.316;2022-09-01T10:08:39;3.10;;;1.30;;
21798;SDS011;24973;47.178;15.316;2022-09-01T10:11:37;2.17;;;1.10;;
21798;SDS011;24973;47.178;15.316;2022-09-01T10:14:28;1.47;;;1.20;;
21798;SDS011;24973;47.178;15.316;2022-09-01T10:17:34;1.13;;;1.03;;
21798;SDS011;24973;47.178;15.316;2022-09-01T10:20:29;1.40;;;1.30;;
21798;SDS011;24973;47.178;15.316;2022-09-01T10:23:18;2.53;;;1.40;;
21798;SDS011;24973;47.178;15.316;2022-09-01T10:26:08;2.17;;;1.50;;
21798;SDS011;24973;47.178;15.316;2022-09-01T10:29:06;1.73;;;1.40;;
21798;SDS011;24973;47.178;15.316;2022-09-01T10:32:01;2.30;;;1.20;;
21798;SDS011;24973;47.178;15.316;2022-09-01T10:35:15;1.60;;;1.00;;
21798;SDS011;24973;47.178;15.316;2022-09-01T10:38:13;4.47;;;1.90;;
21798;SDS011;24973;47.178;15.316;2022-09-01T10:41:04;1.67;;;1.00;;
21798;SDS011;24973;47.178;15.316;2022-09-01T10:44:08;1.33;;;1.20;;
21798;SDS011;24973;47.178;15.316;2022-09-01T10:46:59;5.13;;;1.10;;
21798;SDS011;24973;47.178;15.316;2022-09-01T10:53:01;1.43;;;1.20;;
21798;SDS011;24973;47.178;15.316;2022-09-01T10:56:00;2.00;;;1.07;;
21798;SDS011;24973;47.178;15.316;2022-09-01T10:59:05;2.43;;;1.27;;
21798;SDS011;24973;47.178;15.316;2022-09-01T11:02:18;1.60;;;0.97;;
21798;SDS011;24973;47.178;15.316;2022-09-01T11:05:10;2.03;;;0.77;;
21798;SDS011;24973;47.178;15.316;2022-09-01T11:11:22;1.90;;;1.10;;
21798;SDS011;24973;47.178;15.316;2022-09-01T11:14:19;2.70;;;1.30;;
21798;SDS011;24973;47.178;15.316;2022-09-01T11:17:13;1.03;;;0.90;;
21798;SDS011;24973;47.178;15.316;2022-09-01T11:20:07;1.50;;;1.10;;
21798;SDS011;24973;47.178;15.316;2022-09-01T11:23:09;1.20;;;0.80;;
21798;SDS011;24973;47.178;15.316;2022-09-01T11:29:53;2.07;;;0.70;;
21798;SDS011;24973;47.178;15.316;2022-09-01T11:32:45;2.60;;;0.90;;
21798;SDS011;24973;47.178;15.316;2022-09-01T11:35:39;2.23;;;1.10;;
21798;SDS011;24973;47.178;15.316;2022-09-01T11:38:31;1.10;;;1.00;;
21798;SDS011;24973;47.178;15.316;2022-09-01T11:41:43;2.13;;;1.20;;
21798;SDS011;24973;47.178;15.316;2022-09-01T11:44:42;0.87;;;0.77;;
21798;SDS011;24973;47.178;15.316;2022-09-01T11:47:38;2.27;;;0.87;;
21798;SDS011;24973;47.178;15.316;2022-09-01T11:50:30;1.03;;;0.90;;
21798;SDS011;24973;47.178;15.316;2022-09-01T11:53:21;1.93;;;1.20;;
21798;SDS011;24973;47.178;15.316;2022-09-01T11:56:13;2.30;;;1.00;;
21798;SDS011;24973;47.178;15.316;2022-09-01T11:59:07;1.20;;;1.10;;
21798;SDS011;24973;47.178;15.316;2022-09-01T12:01:57;1.47;;;0.90;;
21798;SDS011;24973;47.178;15.316;2022-09-01T12:04:48;1.53;;;1.00;;
21798;SDS011;24973;47.178;15.316;2022-09-01T12:07:39;0.90;;;0.87;;
21798;SDS011;24973;47.178;15.316;2022-09-01T12:10:32;1.37;;;0.90;;
21798;SDS011;24973;47.178;15.316;2022-09-01T12:13:23;1.17;;;0.97;;
21798;SDS011;24973;47.178;15.316;2022-09-01T12:16:19;0.90;;;0.90;;
21798;SDS011;24973;47.178;15.316;2022-09-01T12:19:20;3.40;;;1.07;;
21798;SDS011;24973;47.178;15.316;2022-09-01T12:22:14;10.37;;;3.63;;
21798;SDS011;24973;47.178;15.316;2022-09-01T12:25:16;8.23;;;2.93;;
21798;SDS011;24973;47.178;15.316;2022-09-01T12:28:09;1.80;;;1.70;;
21798;SDS011;24973;47.178;15.316;2022-09-01T12:30:58;1.60;;;1.00;;
21798;SDS011;24973;47.178;15.316;2022-09-01T12:33:51;3.70;;;1.00;;
21798;SDS011;24973;47.178;15.316;2022-09-01T12:36:41;3.40;;;1.00;;
21798;SDS011;24973;47.178;15.316;2022-09-01T12:39:37;0.80;;;0.80;;
21798;SDS011;24973;47.178;15.316;2022-09-01T12:42:28;4.13;;;1.50;;
21798;SDS011;24973;47.178;15.316;2022-09-01T12:45:40;1.20;;;1.03;;
21798;SDS011;24973;47.178;15.316;2022-09-01T12:48:31;1.30;;;0.90;;
21798;SDS011;24973;47.178;15.316;2022-09-01T12:51:23;1.70;;;0.80;;
21798;SDS011;24973;47.178;15.316;2022-09-01T12:54:15;0.90;;;0.90;;
21798;SDS011;24973;47.178;15.316;2022-09-01T12:57:21;1.43;;;1.10;;
21798;SDS011;24973;47.178;15.316;2022-09-01T13:00:15;5.23;;;2.03;;
21798;SDS011;24973;47.178;15.316;2022-09-01T13:03:09;5.97;;;1.97;;
21798;SDS011;24973;47.178;15.316;2022-09-01T13:06:01;1.50;;;0.80;;
21798;SDS011;24973;47.178;15.316;2022-09-01T13:08:50;2.20;;;0.70;;
21798;SDS011;24973;47.178;15.316;2022-09-01T13:11:39;1.17;;;0.80;;
21798;SDS011;24973;47.178;15.316;2022-09-01T13:14:50;1.10;;;1.00;;
21798;SDS011;24973;47.178;15.316;2022-09-01T13:17:38;1.70;;;1.00;;
21798;SDS011;24973;47.178;15.316;2022-09-01T13:20:27;0.73;;;0.73;;
21798;SDS011;24973;47.178;15.316;2022-09-01T13:23:16;7.03;;;1.30;;
21798;SDS011;24973;47.178;15.316;2022-09-01T13:26:05;1.73;;;1.07;;
21798;SDS011;24973;47.178;15.316;2022-09-01T13:28:53;1.70;;;0.87;;
21798;SDS011;24973;47.178;15.316;2022-09-01T13:31:43;1.10;;;0.93;;
21798;SDS011;24973;47.178;15.316;2022-09-01T13:34:52;0.77;;;0.67;;
21798;SDS011;24973;47.178;15.316;2022-09-01T13:37:41;1.40;;;0.80;;
21798;SDS011;24973;47.178;15.316;2022-09-01T13:40:30;2.53;;;0.87;;
21798;SDS011;24973;47.178;15.316;2022-09-01T13:43:19;1.07;;;0.90;;
21798;SDS011;24973;47.178;15.316;2022-09-01T13:46:12;3.10;;;0.80;;
21798;SDS011;24973;47.178;15.316;2022-09-01T13:49:02;1.03;;;0.80;;
21798;SDS011;24973;47.178;15.316;2022-09-01T13:52:11;2.93;;;0.90;;
21798;SDS011;24973;47.178;15.316;2022-09-01T13:55:00;2.10;;;0.90;;
21798;SDS011;24973;47.178;15.316;2022-09-01T13:57:49;1.17;;;0.77;;
21798;SDS011;24973;47.178;15.316;2022-09-01T14:00:40;2.03;;;0.70;;
21798;SDS011;24973;47.178;15.316;2022-09-01T14:03:31;2.03;;;0.87;;
21798;SDS011;24973;47.178;15.316;2022-09-01T14:06:22;0.80;;;0.80;;
21798;SDS011;24973;47.178;15.316;2022-09-01T14:09:10;1.17;;;0.97;;
21798;SDS011;24973;47.178;15.316;2022-09-01T14:12:03;0.97;;;0.87;;
21798;SDS011;24973;47.178;15.316;2022-09-01T14:14:52;0.93;;;0.93;;
21798;SDS011;24973;47.178;15.316;2022-09-01T14:17:58;0.80;;;0.80;;
21798;SDS011;24973;47.178;15.316;2022-09-01T14:20:48;0.70;;;0.70;;
21798;SDS011;24973;47.178;15.316;2022-09-01T14:23:39;1.00;;;0.90;;
21798;SDS011;24973;47.178;15.316;2022-09-01T14:26:29;1.40;;;0.90;;
21798;SDS011;24973;47.178;15.316;2022-09-01T14:29:17;5.10;;;1.30;;
21798;SDS011;24973;47.178;15.316;2022-09-01T14:32:06;0.83;;;0.80;;
21798;SDS011;24973;47.178;15.316;2022-09-01T14:34:55;1.27;;;1.17;;
21798;SDS011;24973;47.178;15.316;2022-09-01T14:37:44;0.80;;;0.80;;
21798;SDS011;24973;47.178;15.316;2022-09-01T14:40:35;1.53;;;1.40;;
21798;SDS011;24973;47.178;15.316;2022-09-01T14:43:25;1.50;;;1.10;;
21798;SDS011;24973;47.178;15.316;2022-09-01T14:46:14;2.03;;;1.20;;
21798;SDS011;24973;47.178;15.316;2022-09-01T14:49:04;2.20;;;1.07;;
21798;SDS011;24973;47.178;15.316;2022-09-01T14:51:53;3.47;;;0.90;;
21798;SDS011;24973;47.178;15.316;2022-09-01T14:54:57;0.80;;;0.80;;
21798;SDS011;24973;47.178;15.316;2022-09-01T14:57:48;1.53;;;1.43;;
21798;SDS011;24973;47.178;15.316;2022-09-01T15:00:38;1.57;;;0.80;;
21798;SDS011;24973;47.178;15.316;2022-09-01T15:03:33;2.83;;;1.10;;
21798;SDS011;24973;47.178;15.316;2022-09-01T15:06:23;1.07;;;0.87;;
21798;SDS011;24973;47.178;15.316;2022-09-01T15:09:13;1.80;;;0.87;;
21798;SDS011;24973;47.178;15.316;2022-09-01T15:12:04;1.33;;;0.93;;
21798;SDS011;24973;47.178;15.316;2022-09-01T15:14:58;1.17;;;1.07;;
21798;SDS011;24973;47.178;15.316;2022-09-01T15:17:48;1.17;;;0.73;;
21798;SDS011;24973;47.178;15.316;2022-09-01T15:20:39;1.33;;;1.23;;
21798;SDS011;24973;47.178;15.316;2022-09-01T15:23:34;0.73;;;0.50;;
21798;SDS011;24973;47.178;15.316;2022-09-01T15:26:28;2.20;;;0.90;;
21798;SDS011;24973;47.178;15.316;2022-09-01T15:29:17;0.80;;;0.67;;
21798;SDS011;24973;47.178;15.316;2022-09-01T15:32:07;0.87;;;0.77;;
21798;SDS011;24973;47.178;15.316;2022-09-01T15:34:56;1.63;;;0.73;;
21798;SDS011;24973;47.178;15.316;2022-09-01T15:37:49;0.90;;;0.90;;
21798;SDS011;24973;47.178;15.316;2022-09-01T15:40:41;0.87;;;0.80;;
21798;SDS011;24973;47.178;15.316;2022-09-01T15:43:35;0.70;;;0.63;;
21798;SDS011;24973;47.178;15.316;2022-09-01T15:46:27;0.70;;;0.70;;
21798;SDS011;24973;47.178;15.316;2022-09-01T15:49:19;1.33;;;1.23;;
21798;SDS011;24973;47.178;15.316;2022-09-01T15:52:09;1.03;;;0.90;;
21798;SDS011;24973;47.178;15.316;2022-09-01T15:54:58;1.27;;;1.10;;
21798;SDS011;24973;47.178;15.316;2022-09-01T15:57:47;1.10;;;0.90;;
21798;SDS011;24973;47.178;15.316;2022-09-01T16:00:38;1.10;;;1.00;;
21798;SDS011;24973;47.178;15.316;2022-09-01T16:03:29;1.57;;;1.00;;
21798;SDS011;24973;47.178;15.316;2022-09-01T16:06:23;1.37;;;0.80;;
21798;SDS011;24973;47.178;15.316;2022-09-01T16:09:12;2.67;;;0.87;;
21798;SDS011;24973;47.178;15.316;2022-09-01T16:12:01;0.83;;;0.83;;
21798;SDS011;24973;47.178;15.316;2022-09-01T16:14:50;1.23;;;0.90;;
21798;SDS011;24973;47.178;15.316;2022-09-01T16:17:48;1.43;;;1.10;;
21798;SDS011;24973;47.178;15.316;2022-09-01T16:20:59;1.30;;;1.17;;
21798;SDS011;24973;47.178;15.316;2022-09-01T16:23:57;1.23;;;1.13;;
21798;SDS011;24973;47.178;15.316;2022-09-01T16:26:55;1.03;;;0.93;;
21798;SDS011;24973;47.178;15.316;2022-09-01T16:29:52;1.03;;;0.80;;
21798;SDS011;24973;47.178;15.316;2022-09-01T16:32:48;1.23;;;0.93;;
21798;SDS011;24973;47.178;15.316;2022-09-01T16:35:43;2.80;;;0.67;;
21798;SDS011;24973;47.178;15.316;2022-09-01T16:39:08;1.13;;;0.90;;
21798;SDS011;24973;47.178;15.316;2022-09-01T16:42:07;3.13;;;1.00;;
21798;SDS011;24973;47.178;15.316;2022-09-01T16:45:10;1.47;;;1.10;;
21798;SDS011;24973;47.178;15.316;2022-09-01T16:48:18;1.37;;;1.17;;
21798;SDS011;24973;47.178;15.316;2022-09-01T16:51:15;1.37;;;0.87;;
21798;SDS011;24973;47.178;15.316;2022-09-01T16:54:16;1.37;;;1.20;;
21798;SDS011;24973;47.178;15.316;2022-09-01T16:57:11;1.90;;;0.90;;
21798;SDS011;24973;47.178;15.316;2022-09-01T17:00:07;3.90;;;1.00;;
21798;SDS011;24973;47.178;15.316;2022-09-01T17:03:04;1.10;;;0.97;;
21798;SDS011;24973;47.178;15.316;2022-09-01T17:06:05;4.33;;;1.80;;
21798;SDS011;24973;47.178;15.316;2022-09-01T17:09:09;0.90;;;0.67;;
21798;SDS011;24973;47.178;15.316;2022-09-01T17:12:11;5.20;;;1.00;;
21798;SDS011;24973;47.178;15.316;2022-09-01T17:15:14;1.00;;;0.90;;
21798;SDS011;24973;47.178;15.316;2022-09-01T17:18:14;2.37;;;1.00;;